Time;durP1;ratioP1;P1;durP2;ratioP2;P2;SDS_P1;SDS_P2;PMS_P1;PMS_P2;Temp;Humidity;BMP_temperature;BMP_pressure;BME280_temperature;BME280_humidity;BME280_pressure;Samples;Min_cycle;Max_cycle;Signal;HPM_P1;HPM_P2
2021/04/17 00:01:55;;;;;;;7.13;4.75;;;;;;;3.87;83.76;97072.03;4927614;29;20614;-71
2021/04/17 00:04:24;;;;;;;8.15;4.50;;;;;;;4.01;83.12;97073.34;4925860;29;20874;-70
2021/04/17 00:06:51;;;;;;;10.40;6.20;;;;;;;4.07;82.93;97070.59;4923035;29;20537;-71
2021/04/17 00:09:22;;;;;;;10.48;5.68;;;;;;;4.09;83.30;97071.38;4924583;29;20908;-71
2021/04/17 00:11:49;;;;;;;8.43;4.60;;;;;;;4.14;82.96;97066.94;4924069;29;20791;-70
2021/04/17 00:14:20;;;;;;;8.48;5.10;;;;;;;4.06;82.94;97066.34;4916312;28;20710;-71
2021/04/17 00:17:05;;;;;;;8.05;4.82;;;;;;;4.05;82.84;97056.91;4922035;29;20689;-70
2021/04/17 00:19:33;;;;;;;9.90;5.38;;;;;;;4.05;82.68;97059.47;4923310;28;20878;-72
2021/04/17 00:22:00;;;;;;;10.35;5.47;;;;;;;3.98;83.02;97055.38;4920679;29;20674;-72
2021/04/17 00:24:28;;;;;;;8.88;5.75;;;;;;;3.98;82.84;97063.09;4916287;29;20223;-72
2021/04/17 00:26:55;;;;;;;8.52;5.63;;;;;;;3.98;83.34;97058.81;4917734;29;20666;-72
2021/04/17 00:29:22;;;;;;;11.88;5.78;;;;;;;3.98;83.30;97053.66;4916659;29;20691;-73
2021/04/17 00:31:49;;;;;;;8.85;4.88;;;;;;;3.97;83.03;97051.13;4927516;29;20191;-70
2021/04/17 00:34:16;;;;;;;10.20;6.05;;;;;;;4.01;83.04;97050.16;4924376;28;20334;-71
2021/04/17 00:36:43;;;;;;;8.02;5.32;;;;;;;3.86;83.05;97045.47;4921537;29;20206;-71
2021/04/17 00:39:10;;;;;;;13.73;5.88;;;;;;;3.81;83.45;97044.75;4928949;28;20533;-70
2021/04/17 00:41:38;;;;;;;11.60;6.13;;;;;;;3.75;83.59;97042.34;4921118;29;20195;-71
2021/04/17 00:44:06;;;;;;;10.00;5.72;;;;;;;3.84;83.99;97041.25;4904457;29;20584;-71
2021/04/17 00:46:33;;;;;;;9.80;5.93;;;;;;;3.92;83.89;97037.56;4923189;29;20234;-72
2021/04/17 00:49:02;;;;;;;7.50;5.40;;;;;;;4.03;83.41;97037.25;4916784;29;20310;-71
2021/04/17 00:51:29;;;;;;;8.95;5.93;;;;;;;3.97;83.18;97030.53;4918344;29;20266;-72
2021/04/17 00:53:57;;;;;;;10.32;5.85;;;;;;;3.98;82.98;97021.91;4929374;29;20286;-72
2021/04/17 00:56:24;;;;;;;12.90;6.60;;;;;;;3.98;83.05;97033.06;4916996;29;20651;-73
2021/04/17 00:58:52;;;;;;;10.13;6.03;;;;;;;3.90;83.09;97031.59;4922524;28;20683;-72
2021/04/17 01:01:20;;;;;;;10.13;6.07;;;;;;;3.65;83.69;97035.78;4935123;28;20306;-72
2021/04/17 01:03:54;;;;;;;11.15;6.40;;;;;;;3.53;84.23;97027.56;4943704;28;20219;-71
2021/04/17 01:06:24;;;;;;;12.65;6.53;;;;;;;3.61;84.64;97030.75;4936882;28;20569;-71
2021/04/17 01:08:57;;;;;;;11.35;6.80;;;;;;;3.55;84.40;97021.47;4947210;28;20711;-71
2021/04/17 01:11:31;;;;;;;8.65;5.93;;;;;;;3.46;84.76;97026.84;4936113;28;20660;-70
2021/04/17 01:13:59;;;;;;;11.90;6.95;;;;;;;3.52;85.28;97024.13;4949438;28;20221;-72
2021/04/17 01:16:26;;;;;;;9.32;6.13;;;;;;;3.62;84.60;97032.44;4941922;28;20191;-73
2021/04/17 01:18:54;;;;;;;9.13;5.72;;;;;;;3.63;84.32;97027.25;4945301;28;20217;-71
2021/04/17 01:21:22;;;;;;;12.90;7.05;;;;;;;3.65;84.18;97022.91;4925717;28;20198;-70
2021/04/17 01:24:00;;;;;;;12.68;7.22;;;;;;;3.64;84.12;97031.50;4942836;28;20619;-74
2021/04/17 01:26:29;;;;;;;11.45;6.40;;;;;;;3.46;84.60;97021.72;4950485;28;20210;-73
2021/04/17 01:28:58;;;;;;;11.25;6.22;;;;;;;3.41;84.74;97021.03;4947961;28;20335;-73
2021/04/17 01:31:29;;;;;;;10.57;6.68;;;;;;;3.47;85.04;97025.16;4944017;28;20258;-72
2021/04/17 01:33:58;;;;;;;10.90;6.18;;;;;;;3.51;84.32;97019.00;4939414;28;20242;-71
2021/04/17 01:36:27;;;;;;;17.77;8.40;;;;;;;3.52;84.61;97013.84;4945871;28;20175;-73
2021/04/17 01:38:57;;;;;;;10.32;6.28;;;;;;;3.55;83.92;97021.47;4931187;28;20677;-72
2021/04/17 01:41:28;;;;;;;11.40;7.00;;;;;;;3.57;84.35;97017.13;4947769;28;20191;-71
2021/04/17 01:44:00;;;;;;;12.55;6.90;;;;;;;3.58;83.80;97013.66;4941961;28;20229;-73
2021/04/17 01:46:29;;;;;;;11.18;6.57;;;;;;;3.53;84.35;97015.50;4943496;28;20207;-73
2021/04/17 01:49:00;;;;;;;13.18;6.40;;;;;;;3.55;84.05;97013.75;4944388;28;20251;-71
2021/04/17 01:51:29;;;;;;;12.32;5.80;;;;;;;3.51;84.02;97004.44;4947084;28;20210;-71
2021/04/17 01:54:01;;;;;;;14.00;7.50;;;;;;;3.44;84.42;97008.06;4943477;28;20219;-72
2021/04/17 01:56:31;;;;;;;11.48;7.05;;;;;;;3.35;84.71;96999.75;4941329;28;20709;-72
2021/04/17 01:59:01;;;;;;;11.65;7.30;;;;;;;3.44;84.71;97008.06;4944468;28;20293;-72
2021/04/17 02:01:29;;;;;;;11.55;7.05;;;;;;;3.44;84.54;97010.63;4942728;28;20232;-72
2021/04/17 02:03:56;;;;;;;11.38;6.57;;;;;;;3.48;84.39;97006.25;4939129;28;20581;-73
2021/04/17 02:06:23;;;;;;;11.48;7.05;;;;;;;3.48;84.01;97008.81;4946159;28;20219;-72
2021/04/17 02:08:50;;;;;;;10.40;6.35;;;;;;;3.43;84.52;97003.81;4940504;28;20583;-72
2021/04/17 02:11:20;;;;;;;12.57;7.20;;;;;;;3.30;84.57;97005.03;4949324;28;20199;-72
2021/04/17 02:13:47;;;;;;;12.07;7.40;;;;;;;3.30;84.77;97006.75;4943480;28;20234;-71
2021/04/17 02:16:18;;;;;;;14.13;7.32;;;;;;;3.35;84.36;97000.59;4945467;28;20563;-71
2021/04/17 02:18:53;;;;;;;10.45;6.75;;;;;;;3.32;84.56;97002.41;4949158;28;20769;-72
2021/04/17 02:21:26;;;;;;;10.02;6.65;;;;;;;3.31;84.28;96996.41;4943100;28;20190;-71
2021/04/17 02:23:53;;;;;;;11.25;7.65;;;;;;;3.30;84.30;97004.19;4944014;28;20560;-71
2021/04/17 02:26:20;;;;;;;12.48;7.60;;;;;;;3.26;84.55;97002.56;4943150;28;21009;-72
2021/04/17 02:28:48;;;;;;;11.07;6.20;;;;;;;3.24;84.56;97001.78;4939592;28;20766;-72
2021/04/17 02:31:17;;;;;;;10.80;6.90;;;;;;;3.04;84.46;96979.19;4947208;28;20202;-70
2021/04/17 02:33:44;;;;;;;14.13;6.72;;;;;;;3.16;84.81;96993.44;4929330;28;20267;-71
2021/04/17 02:36:11;;;;;;;12.95;7.88;;;;;;;3.13;84.42;96994.34;4950692;28;20185;-71
2021/04/17 02:38:38;;;;;;;17.10;8.30;;;;;;;3.14;84.55;97000.31;4950602;28;20250;-70
2021/04/17 02:41:05;;;;;;;15.15;8.68;;;;;;;3.08;85.16;96993.63;4941051;28;20187;-72
2021/04/17 02:43:32;;;;;;;12.50;7.93;;;;;;;3.09;84.94;96987.59;4945092;28;21093;-71
2021/04/17 02:45:59;;;;;;;12.70;8.18;;;;;;;3.09;84.78;96989.34;4943951;28;20203;-72
2021/04/17 02:48:26;;;;;;;14.57;8.90;;;;;;;3.03;85.24;96987.75;4940574;28;20816;-72
2021/04/17 02:50:54;;;;;;;14.70;8.25;;;;;;;3.12;85.32;96992.66;4940517;28;20262;-71
2021/04/17 02:53:21;;;;;;;14.70;8.48;;;;;;;3.11;85.16;96991.00;4934352;28;20222;-70
2021/04/17 02:55:48;;;;;;;12.82;7.65;;;;;;;3.00;84.98;96987.84;4942090;28;20200;-71
2021/04/17 02:58:15;;;;;;;12.50;7.07;;;;;;;2.98;85.24;96991.34;4937053;28;20873;-71
2021/04/17 03:00:42;;;;;;;12.90;8.48;;;;;;;3.06;85.11;97002.25;4943453;28;20285;-72
2021/04/17 03:03:09;;;;;;;11.15;7.78;;;;;;;2.97;85.33;96993.06;4941749;28;20223;-71
2021/04/17 03:05:37;;;;;;;15.70;8.95;;;;;;;3.07;85.77;96989.38;4947116;28;20614;-71
2021/04/17 03:08:05;;;;;;;14.68;7.63;;;;;;;3.11;85.88;96991.00;4938489;28;20188;-70
2021/04/17 03:10:32;;;;;;;13.43;7.88;;;;;;;3.12;85.72;96989.25;4944233;28;20582;-70
2021/04/17 03:12:59;;;;;;;12.43;7.70;;;;;;;3.14;85.32;96995.19;4943138;28;20287;-71
2021/04/17 03:15:26;;;;;;;13.82;8.30;;;;;;;3.13;85.43;96981.50;4943196;28;20212;-69
2021/04/17 03:17:53;;;;;;;11.38;7.22;;;;;;;3.21;85.10;96992.41;4941577;28;20185;-70
2021/04/17 03:20:20;;;;;;;13.23;8.30;;;;;;;3.18;84.88;96987.38;4939054;28;20963;-71
2021/04/17 03:22:48;;;;;;;14.90;8.32;;;;;;;3.20;84.77;96977.88;4954582;28;20198;-70
2021/04/17 03:25:15;;;;;;;18.38;8.82;;;;;;;3.31;84.66;96982.72;4949767;28;20224;-70
2021/04/17 03:27:43;;;;;;;13.18;7.75;;;;;;;3.24;84.55;96981.22;4941895;28;20628;-71
2021/04/17 03:30:13;;;;;;;16.48;8.88;;;;;;;3.19;84.67;96978.75;4948000;28;20220;-70
2021/04/17 03:32:41;;;;;;;17.60;8.32;;;;;;;3.24;84.46;96982.03;4947246;28;20568;-72
2021/04/17 03:35:10;;;;;;;12.07;7.32;;;;;;;3.15;84.79;96979.72;4937648;28;20226;-72
2021/04/17 03:37:38;;;;;;;13.23;7.88;;;;;;;3.26;85.01;96977.72;4940337;28;20196;-70
2021/04/17 03:40:09;;;;;;;17.35;8.73;;;;;;;3.27;84.93;96986.25;4932366;28;20763;-71
2021/04/17 03:42:37;;;;;;;16.23;8.68;;;;;;;3.27;84.82;96983.69;4937328;28;20249;-72
2021/04/17 03:45:05;;;;;;;18.00;8.85;;;;;;;3.18;85.60;96982.22;4941578;28;20651;-70
2021/04/17 03:47:32;;;;;;;15.63;8.80;;;;;;;3.22;85.61;96973.53;4944032;28;20217;-69
2021/04/17 03:49:59;;;;;;;13.60;8.32;;;;;;;3.21;85.51;96977.00;4945609;28;20758;-71
2021/04/17 03:52:26;;;;;;;18.00;8.80;;;;;;;3.10;85.72;96981.56;4937031;28;20676;-70
2021/04/17 03:54:53;;;;;;;14.40;8.70;;;;;;;3.15;86.05;96978.91;4945119;28;20230;-71
2021/04/17 03:57:21;;;;;;;11.95;7.80;;;;;;;3.06;86.56;96976.53;4941925;28;20676;-72
2021/04/17 03:59:47;;;;;;;14.68;8.85;;;;;;;3.05;86.46;96980.88;4936478;28;20719;-72
2021/04/17 04:02:15;;;;;;;14.82;7.72;;;;;;;2.96;86.98;96981.13;4939690;28;20508;-71
2021/04/17 04:04:42;;;;;;;14.30;8.75;;;;;;;3.01;86.76;96981.81;4947858;28;20234;-70
2021/04/17 04:07:09;;;;;;;14.48;7.90;;;;;;;3.07;86.80;96986.78;4947580;28;20239;-71
2021/04/17 04:09:36;;;;;;;15.13;8.95;;;;;;;3.11;86.36;96979.84;4943762;28;20688;-70
2021/04/17 04:12:06;;;;;;;15.98;8.45;;;;;;;3.09;86.30;96990.16;4940956;28;20278;-72
2021/04/17 04:14:34;;;;;;;13.25;8.48;;;;;;;3.10;86.47;96988.44;4940600;28;20230;-71
2021/04/17 04:17:01;;;;;;;13.35;8.57;;;;;;;3.04;86.43;96997.19;4943457;28;20674;-72
2021/04/17 04:19:29;;;;;;;16.85;9.05;;;;;;;3.07;87.12;96989.38;4943259;28;20690;-72
2021/04/17 04:21:56;;;;;;;20.23;9.77;;;;;;;3.04;87.16;96998.88;4948808;28;20212;-72
2021/04/17 04:24:23;;;;;;;14.85;8.23;;;;;;;3.08;87.19;96995.38;4930069;28;20228;-70
2021/04/17 04:26:50;;;;;;;21.35;9.73;;;;;;;3.08;87.25;96991.06;4944777;28;20544;-70
2021/04/17 04:29:17;;;;;;;17.80;9.20;;;;;;;3.08;87.52;96995.38;4945702;28;20695;-70
2021/04/17 04:31:44;;;;;;;12.15;7.55;;;;;;;3.16;87.10;96994.25;4942573;28;20199;-72
2021/04/17 04:34:11;;;;;;;14.90;9.02;;;;;;;3.10;87.07;96989.28;4941192;28;20763;-69
2021/04/17 04:36:38;;;;;;;15.20;9.13;;;;;;;3.13;86.65;97002.06;4950641;28;20883;-73
2021/04/17 04:39:06;;;;;;;19.02;10.80;;;;;;;3.10;86.45;96998.72;4928373;28;20313;-72
2021/04/17 04:41:42;;;;;;;14.50;8.80;;;;;;;3.12;86.47;97004.66;4943201;28;20202;-71
2021/04/17 04:44:09;;;;;;;16.52;9.55;;;;;;;3.09;86.82;96997.88;4953240;28;20525;-71
2021/04/17 04:46:37;;;;;;;14.65;8.70;;;;;;;3.13;86.42;96996.94;4944717;28;20731;-74
2021/04/17 04:49:05;;;;;;;15.35;8.95;;;;;;;3.02;86.46;96998.09;4953491;28;20282;-70
2021/04/17 04:51:32;;;;;;;17.45;10.63;;;;;;;3.03;86.89;97008.31;4946089;28;20186;-71
2021/04/17 04:53:59;;;;;;;17.70;9.75;;;;;;;2.92;87.53;97004.34;4947029;28;20946;-71
2021/04/17 04:56:26;;;;;;;14.45;9.48;;;;;;;2.92;87.86;97007.75;4942360;28;20515;-72
2021/04/17 04:58:53;;;;;;;15.82;9.80;;;;;;;3.00;87.73;97005.00;4941010;28;20310;-71
2021/04/17 05:01:20;;;;;;;15.40;9.30;;;;;;;3.08;88.16;96997.94;4947589;28;20761;-71
2021/04/17 05:04:13;;;;;;;19.42;9.77;;;;;;;3.21;87.36;97000.13;4947375;28;20603;-71
2021/04/17 05:06:40;;;;;;;13.80;9.50;;;;;;;3.18;87.56;97005.38;4951916;28;20630;-70
2021/04/17 05:09:07;;;;;;;16.67;9.52;;;;;;;3.30;87.26;97012.72;4946611;28;20233;-71
2021/04/17 05:11:34;;;;;;;23.58;10.18;;;;;;;3.26;87.44;96998.28;4945949;28;20544;-71
2021/04/17 05:14:01;;;;;;;19.08;9.35;;;;;;;3.34;87.53;97004.06;4950123;28;20292;-71
2021/04/17 05:16:28;;;;;;;17.42;10.38;;;;;;;3.44;87.46;97010.63;4943934;28;20206;-71
2021/04/17 05:18:55;;;;;;;19.88;9.20;;;;;;;3.56;86.70;97009.44;4930948;28;20230;-71
2021/04/17 05:21:23;;;;;;;13.73;9.40;;;;;;;3.63;86.92;97016.97;4921418;28;20541;-71
2021/04/17 05:23:59;;;;;;;15.35;8.85;;;;;;;3.65;86.99;97011.75;4948673;28;20283;-72
2021/04/17 05:26:26;;;;;;;15.13;10.15;;;;;;;3.74;86.66;97020.06;4944599;28;20571;-71
2021/04/17 05:28:52;;;;;;;21.30;11.57;;;;;;;3.72;85.94;97015.84;4942953;28;20270;-69
2021/04/17 05:31:19;;;;;;;24.83;13.70;;;;;;;3.70;85.67;97002.19;4947611;28;20193;-72
2021/04/17 05:33:47;;;;;;;22.48;12.43;;;;;;;3.71;85.82;97009.88;4939480;28;20682;-70
2021/04/17 05:36:14;;;;;;;21.90;12.05;;;;;;;3.77;85.76;97014.00;4940021;28;20651;-69
2021/04/17 05:38:45;;;;;;;21.48;12.15;;;;;;;3.79;85.62;97020.78;4944788;28;20211;-73
2021/04/17 05:41:12;;;;;;;19.67;10.70;;;;;;;3.69;85.77;97016.78;4946654;28;20265;-70
2021/04/17 05:43:39;;;;;;;20.95;11.18;;;;;;;3.73;85.76;97025.25;4948356;28;20556;-69
2021/04/17 05:46:06;;;;;;;16.75;10.50;;;;;;;3.67;85.73;97018.53;4946322;28;20212;-71
2021/04/17 05:48:33;;;;;;;18.10;10.32;;;;;;;3.61;86.08;97023.84;4945254;28;20219;-71
2021/04/17 05:51:01;;;;;;;18.08;9.80;;;;;;;3.69;86.66;97021.09;4945248;28;20211;-69
2021/04/17 05:53:28;;;;;;;19.98;11.55;;;;;;;3.86;86.58;97016.28;4940282;28;20273;-70
2021/04/17 05:55:56;;;;;;;18.33;10.20;;;;;;;3.99;85.79;97010.75;4943444;28;20191;-71
2021/04/17 05:58:23;;;;;;;18.27;10.65;;;;;;;4.06;85.80;97020.81;4945789;28;20523;-73
2021/04/17 06:00:50;;;;;;;18.70;11.32;;;;;;;4.06;85.33;97014.84;4949849;28;20297;-71
2021/04/17 06:03:17;;;;;;;19.92;10.52;;;;;;;4.00;85.89;97022.72;4944414;28;20209;-72
2021/04/17 06:05:44;;;;;;;21.10;11.63;;;;;;;3.97;86.32;97019.41;4950931;28;20637;-70
2021/04/17 06:08:11;;;;;;;17.48;10.93;;;;;;;3.99;86.25;97021.88;4950400;28;20592;-71
2021/04/17 06:10:38;;;;;;;26.80;12.45;;;;;;;4.03;85.92;97026.97;4940032;28;20685;-71
2021/04/17 06:13:05;;;;;;;25.33;12.73;;;;;;;4.01;86.08;97016.69;4947003;28;20690;-71
2021/04/17 06:15:32;;;;;;;19.83;11.80;;;;;;;4.12;85.36;97027.50;4938410;28;20230;-72
2021/04/17 06:17:59;;;;;;;22.10;12.43;;;;;;;4.23;85.40;97023.72;4939686;28;20833;-71
2021/04/17 06:20:26;;;;;;;22.25;11.98;;;;;;;4.28;85.23;97027.00;4946116;28;20199;-70
2021/04/17 06:22:55;;;;;;;19.90;12.50;;;;;;;4.42;85.34;97021.41;4938929;28;20670;-71
2021/04/17 06:25:22;;;;;;;18.08;11.50;;;;;;;4.28;85.27;97018.44;4943293;28;20222;-71
2021/04/17 06:27:49;;;;;;;19.25;12.25;;;;;;;4.45;85.52;97013.59;4943435;28;20564;-70
2021/04/17 06:30:18;;;;;;;18.40;10.85;;;;;;;4.45;84.83;97009.28;4946877;28;20272;-71
2021/04/17 06:32:49;;;;;;;21.02;11.57;;;;;;;4.58;84.57;97009.75;4941839;28;20642;-70
2021/04/17 06:35:16;;;;;;;22.23;12.43;;;;;;;4.59;84.43;97008.84;4941588;28;20895;-72
2021/04/17 06:37:43;;;;;;;20.27;11.90;;;;;;;4.68;84.52;97008.53;4941024;28;20812;-70
2021/04/17 06:40:11;;;;;;;22.23;12.25;;;;;;;4.88;83.77;97012.16;4939609;28;20692;-71
2021/04/17 06:42:42;;;;;;;26.83;13.10;;;;;;;4.90;83.15;97012.09;4938699;28;20656;-73
2021/04/17 06:45:11;;;;;;;21.85;12.25;;;;;;;4.95;83.26;97005.06;4939587;28;20245;-71
2021/04/17 06:47:40;;;;;;;19.33;12.55;;;;;;;5.00;83.66;97010.91;4943220;28;20211;-70
2021/04/17 06:50:08;;;;;;;21.25;12.70;;;;;;;5.22;83.55;97011.84;4937045;28;20608;-71
2021/04/17 06:52:38;;;;;;;23.60;13.32;;;;;;;5.42;82.26;97009.44;4941300;28;20187;-70
2021/04/17 06:55:07;;;;;;;29.98;13.63;;;;;;;5.60;81.79;97003.63;4942461;28;20698;-69
2021/04/17 06:57:34;;;;;;;23.90;12.25;;;;;;;5.53;81.51;97008.16;4930523;28;20634;-69
2021/04/17 07:00:01;;;;;;;22.70;11.05;;;;;;;5.64;81.55;97006.03;4944985;28;20341;-69
2021/04/17 07:02:28;;;;;;;25.13;13.23;;;;;;;5.47;81.83;97004.97;4936490;28;20191;-69
2021/04/17 07:04:57;;;;;;;25.45;13.65;;;;;;;5.45;81.99;97009.34;4922822;28;20555;-71
2021/04/17 07:07:25;;;;;;;85.63;37.60;;;;;;;5.50;81.82;97007.41;4945929;28;20220;-69
2021/04/17 07:09:52;;;;;;;31.70;15.38;;;;;;;5.53;81.74;97007.31;4945052;28;20219;-71
2021/04/17 07:12:19;;;;;;;18.73;11.80;;;;;;;5.74;81.09;97003.97;4938486;28;20234;-70
2021/04/17 07:14:47;;;;;;;20.52;12.57;;;;;;;5.88;81.03;97001.72;4941061;28;20674;-70
2021/04/17 07:17:15;;;;;;;28.15;13.35;;;;;;;5.98;80.58;97005.66;4943841;28;20261;-71
2021/04/17 07:19:54;;;;;;;23.55;11.82;;;;;;;6.18;79.61;97006.59;4940851;28;20277;-71
2021/04/17 07:22:24;;;;;;;20.10;10.90;;;;;;;6.51;78.69;97002.72;4938901;28;20209;-70
2021/04/17 07:24:53;;;;;;;15.63;11.40;;;;;;;6.88;77.53;96989.13;4937886;28;20226;-71
2021/04/17 07:27:35;;;;;;;23.38;11.90;;;;;;;7.11;75.93;96996.75;4938195;28;20203;-70
2021/04/17 07:30:06;;;;;;;25.38;12.02;;;;;;;7.51;74.51;97004.53;4941946;28;20560;-69
2021/04/17 07:32:33;;;;;;;17.88;11.60;;;;;;;7.97;72.79;96998.97;4950225;28;20203;-69
2021/04/17 07:35:10;;;;;;;16.90;10.85;;;;;;;8.03;71.93;97003.88;4948016;28;20669;-72
2021/04/17 07:37:39;;;;;;;23.52;9.90;;;;;;;8.42;71.17;96990.78;4941142;28;20182;-70
2021/04/17 07:40:18;;;;;;;17.25;10.68;;;;;;;8.42;70.35;96988.19;4941954;28;20867;-69
2021/04/17 07:42:47;;;;;;;19.87;9.60;;;;;;;8.23;69.54;96989.13;4950983;28;20194;-71
2021/04/17 07:45:23;;;;;;;15.80;9.23;;;;;;;8.20;69.75;96988.44;4943847;28;20896;-70
2021/04/17 07:47:51;;;;;;;12.75;8.07;;;;;;;8.70;68.78;96988.56;4946479;28;20469;-71
2021/04/17 07:50:18;;;;;;;13.97;8.30;;;;;;;9.61;65.87;96977.84;4942701;28;20266;-70
2021/04/17 07:52:48;;;;;;;13.00;8.07;;;;;;;10.53;61.53;96973.66;4944241;28;20956;-71
2021/04/17 07:55:17;;;;;;;15.10;8.40;;;;;;;10.88;59.44;96969.94;4940809;28;20559;-69
2021/04/17 07:57:46;;;;;;;13.13;8.33;;;;;;;11.00;58.91;96976.19;4942040;28;20430;-72
2021/04/17 08:00:16;;;;;;;14.83;7.50;;;;;;;11.00;57.26;96976.19;4936137;28;21201;-71
2021/04/17 08:02:48;;;;;;;11.37;7.47;;;;;;;10.57;57.35;96969.97;4949401;28;20497;-72
2021/04/17 08:05:16;;;;;;;17.73;7.27;;;;;;;10.20;59.32;96970.34;4939939;28;20520;-71
2021/04/17 08:07:43;;;;;;;13.83;6.83;;;;;;;9.84;58.86;96967.09;4940439;28;20798;-72
2021/04/17 08:10:15;;;;;;;10.83;7.17;;;;;;;9.75;60.41;96964.97;4939206;28;20533;-69
2021/04/17 08:12:43;;;;;;;10.50;6.80;;;;;;;10.28;59.76;96970.75;4941697;28;21165;-70
2021/04/17 08:15:12;;;;;;;12.37;6.60;;;;;;;10.80;57.38;96971.28;4941372;28;20784;-70
2021/04/17 08:17:41;;;;;;;11.07;6.43;;;;;;;10.93;57.57;96970.50;4946095;28;20913;-71
2021/04/17 08:20:10;;;;;;;9.73;5.90;;;;;;;11.28;57.37;96977.09;4938907;28;20965;-70
2021/04/17 08:22:38;;;;;;;66.73;37.33;;;;;;;11.51;56.97;96970.53;4936177;28;20508;-71
2021/04/17 08:25:06;;;;;;;39.03;20.30;;;;;;;11.91;56.27;96964.63;4939239;28;20858;-71
2021/04/17 08:27:35;;;;;;;11.70;7.73;;;;;;;12.41;55.14;96954.47;4945490;28;21024;-72
2021/04/17 08:30:07;;;;;;;10.30;5.57;;;;;;;12.80;54.12;96958.00;4935766;28;20517;-73
2021/04/17 08:32:36;;;;;;;13.40;6.03;;;;;;;12.69;53.07;96957.84;4940557;28;20529;-69
2021/04/17 08:35:12;;;;;;;16.77;6.60;;;;;;;12.51;53.37;96959.03;4943818;28;21019;-71
2021/04/17 08:38:07;;;;;;;14.37;6.83;;;;;;;12.07;54.15;96958.38;4946697;28;20438;-71
2021/04/17 08:40:45;;;;;;;10.80;5.60;;;;;;;11.82;54.39;96950.38;4938104;28;20915;-72
2021/04/17 08:43:32;;;;;;;11.50;5.27;;;;;;;11.77;53.91;96957.63;4942392;28;20779;-69
2021/04/17 08:46:14;;;;;;;11.43;5.50;;;;;;;11.65;53.90;96958.38;4939132;28;20829;-71
2021/04/17 08:48:52;;;;;;;9.50;5.50;;;;;;;11.78;54.69;96961.09;4935075;28;20876;-70
2021/04/17 08:51:37;;;;;;;8.30;4.93;;;;;;;11.80;52.65;96962.69;4938612;28;20441;-73
2021/04/17 08:54:22;;;;;;;10.63;5.50;;;;;;;11.85;54.55;96954.59;4943820;28;20495;-70
2021/04/17 08:56:58;;;;;;;11.20;5.43;;;;;;;12.61;53.21;96949.69;4941881;28;20913;-70
2021/04/17 08:59:30;;;;;;;12.77;6.00;;;;;;;12.91;51.04;96947.69;4936851;28;20466;-71
2021/04/17 09:01:59;;;;;;;11.20;5.83;;;;;;;13.01;53.12;96954.88;4940737;28;20826;-71
2021/04/17 09:04:27;;;;;;;8.70;5.37;;;;;;;12.89;52.68;96952.16;4945323;28;20466;-73
2021/04/17 09:06:55;;;;;;;9.83;5.77;;;;;;;12.88;52.45;96951.34;4942787;28;21019;-72
2021/04/17 09:09:26;;;;;;;11.90;5.80;;;;;;;13.16;51.95;96955.63;4939692;28;20962;-71
2021/04/17 09:11:55;;;;;;;13.80;4.80;;;;;;;13.54;51.89;96956.50;4938294;28;20869;-69
2021/04/17 09:14:51;;;;;;;7.43;4.60;;;;;;;13.76;51.09;96948.84;4939001;28;20470;-71
2021/04/17 09:17:45;;;;;;;9.10;5.33;;;;;;;13.40;49.75;96948.72;4937369;28;20933;-74
2021/04/17 09:20:36;;;;;;;10.97;5.33;;;;;;;13.17;51.26;96946.81;4934630;28;20466;-71
2021/04/17 09:23:03;;;;;;;10.03;5.40;;;;;;;12.96;51.04;96951.69;4943928;28;20520;-70
2021/04/17 09:25:42;;;;;;;9.50;5.63;;;;;;;13.03;51.82;96952.97;4940360;28;20910;-70
2021/04/17 09:28:10;;;;;;;7.47;4.90;;;;;;;13.21;50.88;96948.31;4941900;28;20513;-71
2021/04/17 09:30:38;;;;;;;10.30;4.90;;;;;;;13.02;50.05;96938.25;4947266;28;20898;-72
2021/04/17 09:33:06;;;;;;;20.37;9.90;;;;;;;13.33;50.44;96943.09;4942781;28;20479;-71
2021/04/17 09:35:37;;;;;;;9.40;5.80;;;;;;;13.61;48.96;96926.34;4945154;28;20765;-72
2021/04/17 09:38:08;;;;;;;6.17;3.80;;;;;;;13.94;47.58;96921.41;4939523;28;20770;-71
2021/04/17 09:40:37;;;;;;;7.10;3.20;;;;;;;14.04;46.88;96930.28;4946510;28;20901;-73
2021/04/17 09:43:06;;;;;;;6.50;4.00;;;;;;;14.01;45.63;96933.13;4944012;28;20550;-74
2021/04/17 09:45:39;;;;;;;7.07;5.07;;;;;;;13.89;47.24;96937.44;4944483;28;20450;-72
2021/04/17 09:48:09;;;;;;;8.23;3.40;;;;;;;14.15;47.58;96930.38;4942746;28;20824;-72
2021/04/17 09:50:38;;;;;;;7.17;4.30;;;;;;;14.27;47.25;96932.16;4944548;28;20536;-72
2021/04/17 09:53:13;;;;;;;95.83;49.60;;;;;;;14.72;45.54;96924.44;4939573;28;20427;-73
2021/04/17 09:55:51;;;;;;;43.83;21.87;;;;;;;14.70;44.91;96925.50;4944649;28;20813;-72
2021/04/17 09:58:30;;;;;;;7.33;4.60;;;;;;;14.59;46.40;96922.84;4940122;28;20438;-72
2021/04/17 10:01:07;;;;;;;12.30;3.87;;;;;;;14.58;45.94;96913.31;4946617;28;20500;-73
2021/04/17 10:03:39;;;;;;;7.60;3.47;;;;;;;14.22;45.86;96914.16;4938633;28;20864;-72
2021/04/17 10:06:25;;;;;;;5.10;3.03;;;;;;;14.10;45.79;96911.53;4944918;28;20447;-73
2021/04/17 10:08:52;;;;;;;14.83;3.67;;;;;;;14.43;46.16;96914.38;4944594;28;20463;-72
2021/04/17 10:11:23;;;;;;;5.27;3.20;;;;;;;14.89;46.27;96899.63;4939979;28;20493;-72
2021/04/17 10:13:50;;;;;;;9.47;3.27;;;;;;;14.84;44.89;96909.59;4942959;28;20960;-74
2021/04/17 10:16:26;;;;;;;7.40;3.63;;;;;;;15.02;45.05;96903.84;4949030;28;20505;-73
2021/04/17 10:18:53;;;;;;;7.00;2.63;;;;;;;15.06;44.77;96907.06;4937662;28;20486;-74
2021/04/17 10:21:26;;;;;;;9.90;3.33;;;;;;;14.87;44.70;96904.16;4949690;28;20446;-73
2021/04/17 10:24:15;;;;;;;7.50;3.07;;;;;;;14.94;45.63;96907.97;4949084;28;20470;-71
2021/04/17 10:26:53;;;;;;;6.63;3.20;;;;;;;15.01;44.37;96896.91;4940668;28;20463;-73
2021/04/17 10:29:22;;;;;;;5.53;3.50;;;;;;;14.95;44.64;96894.75;4937145;28;20466;-72
2021/04/17 10:32:00;;;;;;;6.37;2.90;;;;;;;14.74;44.56;96890.28;4939359;28;20829;-73
2021/04/17 10:34:28;;;;;;;8.03;3.03;;;;;;;14.94;44.55;96881.75;4942684;28;20466;-73
2021/04/17 10:37:00;;;;;;;6.07;2.77;;;;;;;14.61;43.46;96885.09;4949752;28;20465;-73
2021/04/17 10:39:27;;;;;;;4.60;2.83;;;;;;;14.66;44.36;96876.91;4949696;28;21008;-73
2021/04/17 10:42:00;;;;;;;5.27;2.67;;;;;;;14.95;45.43;96886.88;4950801;28;21088;-73
2021/04/17 10:44:27;;;;;;;5.73;3.43;;;;;;;15.06;44.12;96873.81;4942939;28;20463;-73
2021/04/17 10:46:54;;;;;;;7.63;4.20;;;;;;;14.26;43.47;96878.13;4945739;28;20489;-73
2021/04/17 10:49:30;;;;;;;12.80;3.33;;;;;;;14.17;44.44;96878.75;4948488;28;20860;-72
2021/04/17 10:51:59;;;;;;;4.27;2.73;;;;;;;14.00;44.50;96872.09;4948429;28;20974;-72
2021/04/17 10:54:26;;;;;;;3.73;2.83;;;;;;;13.95;45.97;96873.38;4943419;28;20729;-73
2021/04/17 10:56:59;;;;;;;5.43;3.70;;;;;;;13.92;45.16;96870.97;4937309;28;20988;-73
2021/04/17 10:59:53;;;;;;;6.20;3.77;;;;;;;12.63;47.60;96869.47;4939341;28;20973;-73
2021/04/17 11:02:28;;;;;;;6.77;3.27;;;;;;;12.70;48.02;96871.53;4906953;29;20627;-72
2021/04/17 11:04:57;;;;;;;6.70;3.00;;;;;;;12.74;47.03;96869.56;4900925;29;20467;-72
2021/04/17 11:07:34;;;;;;;7.83;3.00;;;;;;;12.70;47.30;96865.50;4901703;29;20515;-73
2021/04/17 11:10:03;;;;;;;7.20;3.27;;;;;;;12.90;46.75;96857.19;4904606;29;20850;-74
2021/04/17 11:12:32;;;;;;;4.60;2.80;;;;;;;12.56;46.44;96864.72;4903578;29;20754;-73
2021/04/17 11:15:17;;;;;;;7.87;3.20;;;;;;;11.76;47.88;96858.63;4906058;29;20480;-73
2021/04/17 11:18:04;;;;;;;10.90;3.80;;;;;;;11.43;49.03;96858.09;4897905;29;20959;-72
2021/04/17 11:20:43;;;;;;;8.87;3.10;;;;;;;11.95;48.00;96846.13;4904324;29;20455;-72
2021/04/17 11:23:41;;;;;;;6.60;3.03;;;;;;;12.14;47.51;96837.00;4901384;29;20848;-71
2021/04/17 11:26:12;;;;;;;7.20;3.50;;;;;;;12.35;49.41;96840.84;4860071;29;20474;-73
2021/04/17 11:28:41;;;;;;;5.93;3.70;;;;;;;13.11;46.58;96834.84;4909457;29;21039;-72
2021/04/17 11:31:09;;;;;;;15.27;3.43;;;;;;;13.70;46.18;96836.81;4902467;29;20483;-72
2021/04/17 11:33:37;;;;;;;3.80;2.20;;;;;;;14.31;45.40;96834.09;4903500;29;20774;-72
2021/04/17 11:36:07;;;;;;;14.93;3.50;;;;;;;14.86;44.64;96829.06;4903723;29;20448;-74
2021/04/17 11:38:34;;;;;;;19.33;3.23;;;;;;;15.24;43.78;96813.91;4898437;29;20860;-72
2021/04/17 11:41:01;;;;;;;4.57;2.93;;;;;;;14.28;44.28;96824.69;4908832;29;20475;-73
2021/04/17 11:43:28;;;;;;;4.13;2.53;;;;;;;14.29;44.58;96830.78;4904766;29;20939;-72
2021/04/17 11:45:56;;;;;;;7.70;2.70;;;;;;;13.90;43.82;96821.34;4904111;29;20444;-74